createdAt,value
2019-03-09T00:01:31.388Z,7.40
2019-03-09T00:04:01.299Z,7.40
2019-03-09T00:06:30.840Z,7.50
2019-03-09T00:09:00.288Z,7.50
2019-03-09T00:11:29.869Z,7.50
2019-03-09T00:13:59.303Z,7.50
2019-03-09T00:16:28.795Z,7.50
2019-03-09T00:18:58.352Z,7.50
2019-03-09T00:21:27.770Z,7.50
2019-03-09T00:24:14.776Z,7.50
2019-03-09T00:27:03.392Z,7.50
2019-03-09T00:29:54.859Z,7.50
2019-03-09T00:32:26.291Z,7.50
2019-03-09T00:34:55.770Z,7.50
2019-03-09T00:37:25.326Z,7.50
2019-03-09T00:39:54.801Z,7.40
2019-03-09T00:42:24.227Z,7.40
2019-03-09T00:44:53.971Z,7.50
2019-03-09T00:47:23.506Z,7.40
2019-03-09T00:49:53.061Z,7.40
2019-03-09T00:52:22.608Z,7.40
2019-03-09T00:54:52.134Z,7.40
2019-03-09T00:57:22.057Z,7.50
2019-03-09T00:59:56.622Z,7.50
2019-03-09T01:02:26.376Z,7.50
2019-03-09T01:04:55.893Z,7.40
2019-03-09T01:07:25.565Z,7.50
2019-03-09T01:09:55.002Z,7.50
2019-03-09T01:12:24.605Z,7.40
2019-03-09T01:14:54.043Z,7.40
2019-03-09T01:17:23.557Z,7.40
2019-03-09T01:19:53.095Z,7.40
2019-03-09T01:22:22.554Z,7.40
2019-03-09T01:24:52.088Z,7.40
2019-03-09T01:27:21.530Z,7.40
2019-03-09T01:29:51.130Z,7.40
2019-03-09T01:32:20.695Z,7.40
2019-03-09T01:34:50.053Z,7.40
2019-03-09T01:37:19.499Z,7.40
2019-03-09T01:39:48.923Z,7.40
2019-03-09T01:42:18.364Z,7.40
2019-03-09T01:44:47.931Z,7.40
2019-03-09T01:47:17.350Z,7.40
2019-03-09T01:49:47.116Z,7.40
2019-03-09T01:52:16.613Z,7.40
2019-03-09T01:54:46.061Z,7.40
2019-03-09T01:57:15.601Z,7.40
2019-03-09T01:59:45.224Z,7.40
2019-03-09T02:02:14.657Z,7.40
2019-03-09T02:04:44.082Z,7.40
2019-03-09T02:07:13.577Z,7.40
2019-03-09T02:09:42.972Z,7.40
2019-03-09T02:12:12.388Z,7.30
2019-03-09T02:14:41.839Z,7.40
2019-03-09T02:17:11.347Z,7.30
2019-03-09T02:19:40.880Z,7.40
2019-03-09T02:22:14.472Z,7.40
2019-03-09T02:24:44.145Z,7.30
2019-03-09T02:27:13.589Z,7.30
2019-03-09T02:29:43.150Z,7.30
2019-03-09T02:32:12.974Z,7.30
2019-03-09T02:34:42.604Z,7.30
2019-03-09T02:37:12.209Z,7.30
2019-03-09T02:39:59.226Z,7.30
2019-03-09T02:42:28.878Z,7.30
2019-03-09T02:44:58.473Z,7.30
2019-03-09T02:47:28.029Z,7.30
2019-03-09T02:49:57.572Z,7.30
2019-03-09T02:52:27.068Z,7.40
2019-03-09T02:54:56.525Z,7.30
2019-03-09T02:57:26.179Z,7.30
2019-03-09T02:59:55.864Z,7.40
2019-03-09T03:02:59.824Z,7.40
2019-03-09T03:05:29.428Z,7.40
2019-03-09T03:07:59.112Z,7.40
2019-03-09T03:10:28.612Z,7.50
2019-03-09T03:12:58.166Z,7.50
2019-03-09T03:15:32.815Z,7.50
2019-03-09T03:18:02.436Z,7.50
2019-03-09T03:20:31.920Z,7.60
2019-03-09T03:23:01.460Z,7.60
2019-03-09T03:25:30.970Z,7.60
2019-03-09T03:28:00.357Z,7.60
2019-03-09T03:30:29.883Z,7.70
2019-03-09T03:32:59.593Z,7.70
2019-03-09T03:35:29.065Z,7.70
2019-03-09T03:37:58.561Z,7.80
2019-03-09T03:40:28.288Z,7.70
2019-03-09T03:42:57.815Z,7.80
2019-03-09T03:45:27.271Z,7.80
2019-03-09T03:47:56.869Z,7.90
2019-03-09T03:50:26.326Z,7.80
2019-03-09T03:52:55.913Z,7.80
2019-03-09T03:55:25.471Z,7.90
2019-03-09T03:57:55.071Z,7.90
2019-03-09T04:00:24.504Z,7.90
2019-03-09T04:02:54.538Z,7.90
2019-03-09T04:05:23.963Z,8.00
2019-03-09T04:07:53.439Z,8.00
2019-03-09T04:10:22.982Z,8.00
2019-03-09T04:12:52.888Z,8.00
2019-03-09T04:15:22.376Z,8.00
2019-03-09T04:17:51.787Z,8.10
2019-03-09T04:20:21.192Z,8.10
2019-03-09T04:22:50.617Z,8.10
2019-03-09T04:25:20.067Z,8.20
2019-03-09T04:27:49.607Z,8.20
2019-03-09T04:30:19.258Z,8.20
2019-03-09T04:32:48.818Z,8.20
2019-03-09T04:35:18.181Z,8.20
2019-03-09T04:37:47.664Z,8.30
2019-03-09T04:40:17.144Z,8.30
2019-03-09T04:42:46.603Z,8.30
2019-03-09T04:45:15.987Z,8.30
2019-03-09T04:47:45.387Z,8.30
2019-03-09T04:50:14.872Z,8.30
2019-03-09T04:52:44.282Z,8.40
2019-03-09T04:55:13.692Z,8.40
2019-03-09T04:57:43.105Z,8.30
2019-03-09T05:00:13.259Z,8.30
2019-03-09T05:02:42.708Z,8.30
2019-03-09T05:05:12.293Z,8.30
2019-03-09T05:08:34.654Z,8.30
2019-03-09T05:11:08.301Z,8.30
2019-03-09T05:13:44.212Z,8.30
2019-03-09T05:16:13.624Z,8.30
2019-03-09T05:18:43.019Z,8.30
2019-03-09T05:21:12.469Z,8.30
2019-03-09T05:23:41.843Z,8.30
2019-03-09T05:26:11.312Z,8.30
2019-03-09T05:28:40.807Z,8.30
2019-03-09T05:31:10.252Z,8.30
2019-03-09T05:33:39.698Z,8.30
2019-03-09T05:36:09.083Z,8.30
2019-03-09T05:38:38.510Z,8.30
2019-03-09T05:41:07.980Z,8.30
2019-03-09T05:43:37.358Z,8.30
2019-03-09T05:46:06.769Z,8.20
2019-03-09T05:48:36.220Z,8.20
2019-03-09T05:51:05.711Z,8.20
2019-03-09T05:53:35.106Z,8.10
2019-03-09T05:56:04.519Z,8.10
2019-03-09T05:58:33.969Z,8.00
2019-03-09T06:01:03.426Z,8.10
2019-03-09T06:03:32.913Z,8.00
2019-03-09T06:06:10.424Z,8.00
2019-03-09T06:08:40.073Z,8.00
2019-03-09T06:11:09.454Z,8.00
2019-03-09T06:13:38.932Z,8.00
2019-03-09T06:16:08.400Z,8.00
2019-03-09T06:18:37.813Z,8.00
2019-03-09T06:21:07.197Z,8.10
2019-03-09T06:23:36.614Z,8.00
2019-03-09T06:26:06.012Z,8.10
2019-03-09T06:28:35.387Z,8.00
2019-03-09T06:31:04.769Z,8.10
2019-03-09T06:33:38.106Z,8.10
2019-03-09T06:36:43.746Z,8.10
2019-03-09T06:39:18.463Z,8.10
2019-03-09T06:42:43.931Z,8.20
2019-03-09T06:45:15.078Z,8.10
2019-03-09T06:47:44.527Z,8.20
2019-03-09T06:50:16.091Z,8.20
2019-03-09T06:52:45.496Z,8.20
2019-03-09T06:55:15.061Z,8.20
2019-03-09T06:57:44.465Z,8.20
2019-03-09T07:00:45.026Z,8.20
2019-03-09T07:03:14.437Z,8.20
2019-03-09T07:05:43.876Z,8.30
2019-03-09T07:08:13.376Z,8.30
2019-03-09T07:10:42.876Z,8.30
2019-03-09T07:13:12.254Z,8.30
2019-03-09T07:15:45.648Z,8.30
2019-03-09T07:18:20.021Z,8.40
2019-03-09T07:20:49.472Z,8.40
2019-03-09T07:23:18.878Z,8.40
2019-03-09T07:25:48.296Z,8.40
2019-03-09T07:28:17.967Z,8.50
2019-03-09T07:30:47.407Z,8.50
2019-03-09T07:33:16.886Z,8.60
2019-03-09T07:35:46.378Z,8.70
2019-03-09T07:38:15.829Z,8.70
2019-03-09T07:40:45.280Z,8.70
2019-03-09T07:43:14.683Z,8.70
2019-03-09T07:45:44.171Z,8.70
2019-03-09T07:48:13.663Z,8.80
2019-03-09T07:50:43.124Z,8.80
2019-03-09T07:53:12.622Z,8.80
2019-03-09T07:55:42.035Z,8.80
2019-03-09T07:58:11.645Z,8.80
2019-03-09T08:00:41.077Z,8.80
2019-03-09T08:03:10.518Z,8.80
2019-03-09T08:05:39.909Z,8.90
2019-03-09T08:08:13.936Z,8.90
2019-03-09T08:10:40.876Z,8.90
2019-03-09T08:13:10.750Z,9.00
2019-03-09T08:15:40.410Z,9.00
2019-03-09T08:21:17.327Z,9.10
2019-03-09T08:23:48.398Z,9.10
2019-03-09T08:26:17.942Z,9.20
2019-03-09T08:28:47.533Z,9.20
2019-03-09T08:31:17.016Z,9.20
2019-03-09T08:33:46.541Z,9.20
2019-03-09T08:36:16.041Z,9.20
2019-03-09T08:38:45.572Z,9.20
2019-03-09T08:41:15.019Z,9.30
2019-03-09T08:43:44.584Z,9.30
2019-03-09T08:46:14.024Z,9.30
2019-03-09T08:48:43.594Z,9.30
2019-03-09T08:51:13.007Z,9.40
2019-03-09T08:53:43.232Z,9.50
2019-03-09T08:56:12.706Z,9.50
2019-03-09T08:58:42.172Z,9.50
2019-03-09T09:01:11.685Z,9.50
2019-03-09T09:03:41.191Z,9.60
2019-03-09T09:06:10.677Z,9.60
2019-03-09T09:08:58.603Z,9.60
2019-03-09T09:11:28.039Z,9.70
2019-03-09T09:13:57.527Z,9.70
2019-03-09T09:16:26.936Z,9.70
2019-03-09T09:18:56.430Z,9.70
2019-03-09T09:21:25.976Z,9.80
2019-03-09T09:23:57.893Z,9.80
2019-03-09T09:26:27.595Z,9.90
2019-03-09T09:28:57.137Z,9.90
2019-03-09T09:31:26.708Z,9.90
2019-03-09T09:33:58.388Z,10.00
2019-03-09T09:36:27.494Z,10.00
2019-03-09T09:38:56.925Z,10.10
2019-03-09T09:41:26.347Z,10.10
2019-03-09T09:43:55.805Z,10.10
2019-03-09T09:46:28.531Z,10.20
2019-03-09T09:48:58.033Z,10.20
2019-03-09T09:51:27.454Z,10.20
2019-03-09T09:53:56.871Z,10.20
2019-03-09T09:56:26.320Z,10.30
2019-03-09T09:58:55.818Z,10.30
2019-03-09T10:01:25.198Z,10.30
2019-03-09T10:03:54.719Z,10.30
2019-03-09T10:06:24.183Z,10.30
2019-03-09T10:08:53.633Z,10.30
2019-03-09T10:11:23.047Z,10.30
2019-03-09T10:13:52.448Z,10.40
2019-03-09T10:16:21.895Z,10.40
2019-03-09T10:18:51.388Z,10.40
2019-03-09T10:21:20.784Z,10.40
2019-03-09T10:23:50.262Z,10.40
2019-03-09T10:26:19.745Z,10.40
2019-03-09T10:28:49.161Z,10.40
2019-03-09T10:31:18.597Z,10.50
2019-03-09T10:33:47.994Z,10.40
2019-03-09T10:36:17.357Z,10.50
2019-03-09T10:38:46.718Z,10.50
2019-03-09T10:41:16.140Z,10.50
2019-03-09T10:43:45.672Z,10.50
2019-03-09T10:46:15.034Z,10.60
2019-03-09T10:48:44.445Z,10.60
2019-03-09T10:51:13.865Z,10.70
2019-03-09T10:53:43.319Z,10.80
2019-03-09T10:56:12.705Z,10.80
2019-03-09T10:58:42.126Z,10.90
2019-03-09T11:01:11.540Z,10.90
2019-03-09T11:03:40.939Z,11.00
2019-03-09T11:06:10.321Z,11.00
2019-03-09T11:08:39.733Z,11.00
2019-03-09T11:11:09.097Z,11.10
2019-03-09T11:13:38.539Z,11.30
2019-03-09T11:16:07.917Z,11.40
2019-03-09T11:18:37.312Z,11.50
2019-03-09T11:21:06.713Z,11.50
2019-03-09T11:23:36.127Z,11.40
2019-03-09T11:26:05.499Z,11.40
2019-03-09T11:28:34.926Z,11.50
2019-03-09T11:31:04.309Z,11.50
2019-03-09T11:33:33.660Z,11.60
2019-03-09T11:36:03.047Z,11.60
2019-03-09T11:38:32.489Z,11.60
2019-03-09T11:41:01.851Z,11.50
2019-03-09T11:43:31.320Z,11.60
2019-03-09T11:46:00.749Z,11.50
2019-03-09T11:48:30.154Z,11.50
2019-03-09T11:50:59.612Z,11.50
2019-03-09T11:53:29.063Z,11.40
2019-03-09T11:55:58.615Z,11.40
2019-03-09T11:58:29.566Z,11.40
2019-03-09T12:00:59.002Z,11.40
2019-03-09T12:03:28.514Z,11.40
2019-03-09T12:05:58.036Z,11.40
2019-03-09T12:08:27.538Z,11.40
2019-03-09T12:10:57.050Z,11.40
2019-03-09T12:13:26.476Z,11.40
2019-03-09T12:15:55.950Z,11.40
2019-03-09T12:18:25.503Z,11.30
2019-03-09T12:20:54.950Z,11.30
2019-03-09T12:23:25.692Z,11.20
2019-03-09T12:25:55.152Z,11.20
2019-03-09T12:28:24.567Z,11.10
2019-03-09T12:30:53.988Z,11.10
2019-03-09T12:33:23.356Z,11.10
2019-03-09T12:35:52.765Z,11.20
2019-03-09T12:38:22.161Z,11.20
2019-03-09T12:40:51.578Z,11.20
2019-03-09T12:43:21.021Z,11.30
2019-03-09T12:45:50.732Z,11.30
2019-03-09T12:48:20.209Z,11.30
2019-03-09T12:50:49.643Z,11.40
2019-03-09T12:53:19.087Z,11.30
2019-03-09T12:55:48.581Z,11.40
2019-03-09T12:58:18.046Z,11.40
2019-03-09T13:00:47.450Z,11.40
2019-03-09T13:03:17.016Z,11.40
2019-03-09T13:05:46.822Z,11.40
2019-03-09T13:08:16.583Z,11.40
2019-03-09T13:10:46.061Z,11.40
2019-03-09T13:13:15.604Z,11.40
2019-03-09T13:15:45.420Z,11.40
2019-03-09T13:18:14.879Z,11.40
2019-03-09T13:20:44.214Z,11.40
2019-03-09T13:23:13.659Z,11.40
2019-03-09T13:25:43.081Z,11.40
2019-03-09T13:28:12.554Z,11.30
2019-03-09T13:30:41.974Z,11.30
2019-03-09T13:33:11.347Z,11.20
2019-03-09T13:35:40.735Z,11.20
2019-03-09T13:38:10.185Z,11.10
2019-03-09T13:40:39.664Z,10.90
2019-03-09T13:43:09.070Z,10.70
2019-03-09T13:45:38.474Z,10.40
2019-03-09T13:48:07.897Z,10.10
2019-03-09T13:50:37.296Z,9.90
2019-03-09T13:53:06.643Z,9.70
2019-03-09T13:55:36.097Z,9.70
2019-03-09T13:58:05.574Z,9.60
2019-03-09T14:00:40.478Z,9.50
2019-03-09T14:03:06.092Z,9.50
2019-03-09T14:05:35.526Z,9.40
2019-03-09T14:08:04.884Z,9.30
2019-03-09T14:10:34.580Z,9.30
2019-03-09T14:13:03.999Z,9.30
2019-03-09T14:15:33.531Z,9.40
2019-03-09T14:18:03.003Z,9.40
2019-03-09T14:20:32.519Z,9.50
2019-03-09T14:23:01.998Z,9.50
2019-03-09T14:25:31.816Z,9.50
2019-03-09T14:28:01.381Z,9.40
2019-03-09T14:30:30.987Z,9.40
2019-03-09T14:33:00.502Z,9.40
2019-03-09T14:35:29.932Z,9.40
2019-03-09T14:37:59.423Z,9.40
2019-03-09T14:40:28.882Z,9.30
2019-03-09T14:42:58.420Z,9.40
2019-03-09T14:45:58.265Z,9.50
2019-03-09T14:48:27.798Z,9.50
2019-03-09T14:50:57.320Z,9.60
2019-03-09T14:53:26.652Z,9.70
2019-03-09T14:55:56.081Z,9.80
2019-03-09T14:58:25.511Z,9.80
2019-03-09T15:00:54.977Z,9.80
2019-03-09T15:03:24.457Z,9.80
2019-03-09T15:05:54.049Z,9.80
2019-03-09T15:08:23.588Z,9.80
2019-03-09T15:10:53.179Z,9.80
2019-03-09T15:13:22.785Z,9.70
2019-03-09T15:15:52.695Z,9.70
2019-03-09T15:18:22.390Z,9.50
2019-03-09T15:20:51.990Z,9.40
2019-03-09T15:23:21.819Z,9.30
2019-03-09T15:25:51.273Z,9.10
2019-03-09T15:28:20.946Z,9.00
2019-03-09T15:30:50.696Z,9.00
2019-03-09T15:33:21.777Z,8.90
2019-03-09T15:35:51.485Z,8.90
2019-03-09T15:38:21.198Z,8.80
2019-03-09T15:40:50.785Z,8.70
2019-03-09T15:43:20.543Z,8.60
2019-03-09T15:45:50.285Z,8.40
2019-03-09T15:48:19.811Z,8.10
2019-03-09T15:50:49.279Z,7.90
2019-03-09T15:53:18.894Z,7.80
2019-03-09T15:55:48.810Z,7.60
2019-03-09T15:58:18.384Z,7.50
2019-03-09T16:00:47.996Z,7.40
2019-03-09T16:03:17.805Z,7.40
2019-03-09T16:05:47.544Z,7.40
2019-03-09T16:08:17.294Z,7.40
2019-03-09T16:10:46.842Z,7.40
2019-03-09T16:13:16.575Z,7.50
2019-03-09T16:15:46.191Z,7.40
2019-03-09T16:18:15.913Z,7.50
2019-03-09T16:20:45.673Z,7.50
2019-03-09T16:23:15.370Z,7.60
2019-03-09T16:25:44.893Z,7.60
2019-03-09T16:28:14.704Z,7.60
2019-03-09T16:30:44.401Z,7.60
2019-03-09T16:33:14.199Z,7.60
2019-03-09T16:35:44.072Z,7.60
2019-03-09T16:38:13.893Z,7.60
2019-03-09T16:40:43.592Z,7.60
2019-03-09T16:43:13.286Z,7.60
2019-03-09T16:45:43.397Z,7.60
2019-03-09T16:48:12.892Z,7.70
2019-03-09T16:50:42.681Z,7.70
2019-03-09T16:53:12.273Z,7.80
2019-03-09T16:55:41.996Z,7.80
2019-03-09T16:58:11.994Z,7.80
2019-03-09T17:00:41.927Z,7.80
2019-03-09T17:03:12.093Z,7.80
2019-03-09T17:05:42.066Z,7.80
2019-03-09T17:08:12.785Z,7.80
2019-03-09T17:10:42.775Z,7.90
2019-03-09T17:13:12.452Z,7.90
2019-03-09T17:15:45.488Z,7.90
2019-03-09T17:18:15.370Z,7.90
2019-03-09T17:20:45.860Z,7.90
2019-03-09T17:23:15.631Z,7.90
2019-03-09T17:25:48.913Z,7.90
2019-03-09T17:28:18.722Z,7.90
2019-03-09T17:30:48.314Z,7.90
2019-03-09T17:33:19.133Z,7.90
2019-03-09T17:35:49.114Z,8.00
2019-03-09T17:38:55.465Z,8.00
2019-03-09T17:41:25.095Z,7.90
2019-03-09T17:43:55.058Z,7.90
2019-03-09T17:46:24.612Z,7.90
2019-03-09T17:48:54.432Z,7.80
2019-03-09T17:51:24.006Z,7.80
2019-03-09T17:53:53.652Z,7.70
2019-03-09T17:56:23.295Z,7.70
2019-03-09T17:58:52.962Z,7.70
2019-03-09T18:01:22.822Z,7.70
2019-03-09T18:03:52.443Z,7.60
2019-03-09T18:06:22.246Z,7.60
2019-03-09T18:08:52.811Z,7.50
2019-03-09T18:11:22.399Z,7.50
2019-03-09T18:13:51.824Z,7.50
2019-03-09T18:16:21.688Z,7.40
2019-03-09T18:18:51.404Z,7.30
2019-03-09T18:21:21.014Z,7.30
2019-03-09T18:23:50.544Z,7.20
2019-03-09T18:26:20.087Z,7.20
2019-03-09T18:28:49.680Z,7.20
2019-03-09T18:31:19.694Z,7.20
2019-03-09T18:33:49.308Z,7.10
2019-03-09T18:36:18.925Z,7.10
2019-03-09T18:38:48.631Z,7.00
2019-03-09T18:41:18.445Z,7.00
2019-03-09T18:43:48.191Z,7.00
2019-03-09T18:46:17.724Z,7.00
2019-03-09T18:48:47.428Z,7.00
2019-03-09T18:51:17.021Z,7.00
2019-03-09T18:53:46.768Z,6.90
2019-03-09T18:56:16.481Z,6.90
2019-03-09T18:58:46.123Z,6.90
2019-03-09T19:01:15.743Z,6.80
2019-03-09T19:03:45.271Z,6.80
2019-03-09T19:06:15.082Z,6.80
2019-03-09T19:08:44.763Z,6.80
2019-03-09T19:11:14.368Z,6.80
2019-03-09T19:13:43.993Z,6.70
2019-03-09T19:16:13.558Z,6.70
2019-03-09T19:18:43.170Z,6.70
2019-03-09T19:21:13.585Z,6.80
2019-03-09T19:23:43.333Z,6.70
2019-03-09T19:26:12.890Z,6.70
2019-03-09T19:28:42.422Z,6.70
2019-03-09T19:31:11.977Z,6.70
2019-03-09T19:33:42.175Z,6.70
2019-03-09T19:36:11.842Z,6.60
2019-03-09T19:38:41.756Z,6.60
2019-03-09T19:41:11.736Z,6.60
2019-03-09T19:43:41.878Z,6.60
2019-03-09T19:46:11.639Z,6.50
2019-03-09T19:48:41.450Z,6.50
2019-03-09T19:51:11.076Z,6.50
2019-03-09T19:53:40.597Z,6.50
2019-03-09T19:56:10.254Z,6.50
2019-03-09T19:58:39.939Z,6.50
2019-03-09T20:01:09.643Z,6.50
2019-03-09T20:03:39.616Z,6.50
2019-03-09T20:06:09.341Z,6.50
2019-03-09T20:08:39.146Z,6.40
2019-03-09T20:11:08.704Z,6.40
2019-03-09T20:13:38.271Z,6.40
2019-03-09T20:16:07.821Z,6.40
2019-03-09T20:18:37.411Z,6.40
2019-03-09T20:21:07.056Z,6.40
2019-03-09T20:23:36.633Z,6.50
2019-03-09T20:26:06.202Z,6.50
2019-03-09T20:28:35.734Z,6.50
2019-03-09T20:31:05.324Z,6.50
2019-03-09T20:33:34.979Z,6.40
2019-03-09T20:36:04.619Z,6.50
2019-03-09T20:38:34.163Z,6.50
2019-03-09T20:41:03.662Z,6.50
2019-03-09T20:43:33.205Z,6.50
2019-03-09T20:46:02.747Z,6.50
2019-03-09T20:48:32.337Z,6.50
2019-03-09T20:51:01.892Z,6.40
2019-03-09T20:53:31.502Z,6.40
2019-03-09T20:56:00.961Z,6.40
2019-03-09T20:58:30.594Z,6.40
2019-03-09T21:01:00.079Z,6.40
2019-03-09T21:03:29.662Z,6.40
2019-03-09T21:05:59.425Z,6.40
2019-03-09T21:08:28.970Z,6.40
2019-03-09T21:11:03.916Z,6.40
2019-03-09T21:13:29.854Z,6.40
2019-03-09T21:15:59.482Z,6.40
2019-03-09T21:18:29.083Z,6.40
2019-03-09T21:20:58.617Z,6.40
2019-03-09T21:23:28.089Z,6.50
2019-03-09T21:25:58.034Z,6.50
2019-03-09T21:28:27.817Z,6.50
2019-03-09T21:30:57.354Z,6.60
2019-03-09T21:33:27.110Z,6.60
2019-03-09T21:35:56.642Z,6.60
2019-03-09T21:38:26.302Z,6.70
2019-03-09T21:40:56.001Z,6.80
2019-03-09T21:43:25.550Z,6.80
2019-03-09T21:45:55.059Z,6.80
2019-03-09T21:48:24.561Z,6.80
2019-03-09T21:50:54.153Z,6.90
2019-03-09T21:53:23.847Z,6.90
2019-03-09T21:55:53.350Z,6.90
2019-03-09T21:58:22.826Z,6.90
2019-03-09T22:00:52.375Z,6.90
2019-03-09T22:03:21.816Z,6.90
2019-03-09T22:05:51.273Z,7.00
2019-03-09T22:08:20.683Z,7.00
2019-03-09T22:10:50.119Z,7.00
2019-03-09T22:13:19.662Z,7.00
2019-03-09T22:15:49.232Z,7.00
2019-03-09T22:18:18.708Z,7.00
2019-03-09T22:20:48.238Z,7.10
2019-03-09T22:23:17.655Z,7.10
2019-03-09T22:25:47.320Z,7.10
2019-03-09T22:28:17.008Z,7.20
2019-03-09T22:30:46.538Z,7.20
2019-03-09T22:33:15.927Z,7.20
2019-03-09T22:35:45.344Z,7.20
2019-03-09T22:38:15.235Z,7.20
2019-03-09T22:40:44.804Z,7.30
2019-03-09T22:43:14.335Z,7.30
2019-03-09T22:45:43.819Z,7.30
2019-03-09T22:48:13.305Z,7.40
2019-03-09T22:50:42.763Z,7.40
2019-03-09T22:53:12.212Z,7.40
2019-03-09T22:55:41.688Z,7.40
2019-03-09T22:58:11.238Z,7.30
2019-03-09T23:00:40.960Z,7.30
2019-03-09T23:03:10.831Z,7.30
2019-03-09T23:05:40.478Z,7.40
2019-03-09T23:08:09.957Z,7.40
2019-03-09T23:10:39.392Z,7.40
2019-03-09T23:13:08.918Z,7.30
2019-03-09T23:15:38.603Z,7.30
2019-03-09T23:18:08.358Z,7.40
2019-03-09T23:20:37.880Z,7.40
2019-03-09T23:23:07.471Z,7.40
2019-03-09T23:25:36.917Z,7.40
2019-03-09T23:28:06.457Z,7.30
2019-03-09T23:30:36.052Z,7.30
2019-03-09T23:33:05.596Z,7.30
2019-03-09T23:35:35.028Z,7.30
2019-03-09T23:38:04.669Z,7.40
2019-03-09T23:40:34.327Z,7.30
2019-03-09T23:43:03.921Z,7.30
2019-03-09T23:45:33.483Z,7.30
2019-03-09T23:48:03.229Z,7.30
2019-03-09T23:50:33.347Z,7.20
2019-03-09T23:53:03.151Z,7.30
2019-03-09T23:55:32.627Z,7.30
2019-03-09T23:58:02.377Z,7.20
